createdAt,value
2017-11-20T00:00:35.410Z,960.2
2017-11-20T00:01:35.424Z,960.26
2017-11-20T00:02:35.446Z,960.18
2017-11-20T00:03:35.452Z,960.26
2017-11-20T00:04:35.487Z,960.24
2017-11-20T00:05:35.480Z,960.28
2017-11-20T00:06:35.494Z,960.22
2017-11-20T00:07:35.507Z,960.32
2017-11-20T00:08:35.521Z,960.23
2017-11-20T00:09:35.534Z,960.31
2017-11-20T00:10:35.549Z,960.24
2017-11-20T00:11:35.565Z,960.28
2017-11-20T00:12:35.578Z,960.36
2017-11-20T00:13:35.589Z,960.3
2017-11-20T00:14:35.604Z,960.39
2017-11-20T00:15:35.618Z,960.33
2017-11-20T00:16:35.631Z,960.29
2017-11-20T00:17:35.645Z,960.22
2017-11-20T00:18:35.658Z,960.29
2017-11-20T00:19:35.670Z,960.36
2017-11-20T00:20:35.685Z,960.32
2017-11-20T00:21:35.700Z,960.35
2017-11-20T00:22:35.713Z,960.36
2017-11-20T00:23:35.726Z,960.33
2017-11-20T00:24:35.740Z,960.28
2017-11-20T00:25:35.757Z,960.22
2017-11-20T00:26:35.775Z,960.24
2017-11-20T00:27:35.781Z,960.23
2017-11-20T00:28:35.845Z,960.24
2017-11-20T00:29:35.811Z,960.07
2017-11-20T00:30:35.822Z,960.24
2017-11-20T00:31:35.835Z,960.27
2017-11-20T00:32:35.851Z,960.21
2017-11-20T00:33:35.865Z,960.25
2017-11-20T00:34:35.876Z,960.16
2017-11-20T00:35:35.892Z,960.32
2017-11-20T00:36:35.906Z,960.28
2017-11-20T00:37:35.918Z,960.37
2017-11-20T00:38:35.932Z,960.32
2017-11-20T00:39:35.946Z,960.25
2017-11-20T00:40:35.972Z,960.29
2017-11-20T00:41:35.974Z,960.28
2017-11-20T00:42:35.988Z,960.28
2017-11-20T00:43:36.002Z,960.28
2017-11-20T00:44:36.014Z,960.32
2017-11-20T00:45:36.034Z,960.23
2017-11-20T00:46:36.092Z,960.37
2017-11-20T00:47:36.054Z,960.19
2017-11-20T00:48:36.070Z,960.24
2017-11-20T00:49:36.082Z,960.18
2017-11-20T00:50:36.096Z,960.3
2017-11-20T00:51:36.109Z,960.3
2017-11-20T00:52:36.124Z,960.27
2017-11-20T00:53:36.137Z,960.29
2017-11-20T00:54:36.151Z,960.37
2017-11-20T00:55:36.166Z,960.23
2017-11-20T00:56:36.185Z,960.18
2017-11-20T00:57:36.191Z,960.2
2017-11-20T00:58:36.206Z,960.24
2017-11-20T00:59:36.219Z,960.17
2017-11-20T01:00:36.232Z,960.24
2017-11-20T01:01:36.296Z,960.21
2017-11-20T01:02:36.260Z,960.22
2017-11-20T01:03:36.272Z,960.19
2017-11-20T01:04:36.287Z,960.21
2017-11-20T01:05:36.300Z,960.2
2017-11-20T01:06:36.318Z,960.28
2017-11-20T01:07:36.327Z,960.25
2017-11-20T01:08:36.342Z,960.18
2017-11-20T01:09:36.355Z,960.29
2017-11-20T01:10:36.368Z,960.2
2017-11-20T01:11:36.381Z,960.17
2017-11-20T01:12:36.395Z,960.27
2017-11-20T01:13:36.409Z,960.2
2017-11-20T01:14:36.423Z,960.24
2017-11-20T01:15:36.437Z,960.28
2017-11-20T01:16:36.460Z,960.23
2017-11-20T01:17:36.464Z,960.23
2017-11-20T01:18:36.476Z,960.19
2017-11-20T01:19:36.490Z,960.25
2017-11-20T01:20:36.553Z,960.26
2017-11-20T01:21:36.517Z,960.31
2017-11-20T01:22:36.531Z,960.32
2017-11-20T01:23:36.543Z,960.31
2017-11-20T01:24:36.558Z,960.29
2017-11-20T01:25:36.571Z,960.29
2017-11-20T01:26:36.585Z,960.32
2017-11-20T01:27:36.599Z,960.26
2017-11-20T01:28:36.611Z,960.25
2017-11-20T01:29:36.626Z,960.23
2017-11-20T01:30:36.639Z,960.25
2017-11-20T01:31:36.652Z,960.26
2017-11-20T01:32:36.666Z,960.26
2017-11-20T01:33:36.694Z,960.27
2017-11-20T01:34:36.692Z,960.27
2017-11-20T01:35:36.758Z,960.15
2017-11-20T01:36:36.727Z,960.23
2017-11-20T01:37:36.733Z,960.2
2017-11-20T01:38:36.746Z,960.29
2017-11-20T01:39:36.760Z,960.18
2017-11-20T01:40:36.775Z,960.22
2017-11-20T01:41:36.787Z,960.2
2017-11-20T01:42:36.800Z,960.25
2017-11-20T01:43:36.815Z,960.26
2017-11-20T01:44:36.829Z,960.31
2017-11-20T01:45:36.843Z,960.36
2017-11-20T01:46:36.855Z,960.29
2017-11-20T01:47:36.868Z,960.3
2017-11-20T01:48:36.883Z,960.29
2017-11-20T01:49:36.897Z,960.31
2017-11-20T01:50:36.914Z,960.37
2017-11-20T01:51:36.975Z,960.34
2017-11-20T01:52:36.943Z,960.3
2017-11-20T01:53:36.950Z,960.32
2017-11-20T01:54:36.964Z,960.34
2017-11-20T01:55:36.978Z,960.35
2017-11-20T01:56:36.990Z,960.31
2017-11-20T01:57:37.005Z,960.33
2017-11-20T01:58:37.019Z,960.39
2017-11-20T01:59:37.032Z,960.33
2017-11-20T02:00:37.046Z,960.37
2017-11-20T02:01:37.058Z,960.38
2017-11-20T02:02:37.073Z,960.32
2017-11-20T02:03:37.085Z,960.33
2017-11-20T02:04:37.100Z,960.36
2017-11-20T02:05:37.112Z,960.26
2017-11-20T02:06:37.175Z,960.35
2017-11-20T02:07:37.141Z,960.36
2017-11-20T02:08:37.155Z,960.49
2017-11-20T02:09:37.169Z,960.4
2017-11-20T02:10:37.180Z,960.39
2017-11-20T02:11:37.194Z,960.39
2017-11-20T02:12:37.209Z,960.43
2017-11-20T02:13:37.222Z,960.33
2017-11-20T02:14:37.235Z,960.44
2017-11-20T02:15:37.250Z,960.38
2017-11-20T02:16:37.262Z,960.37
2017-11-20T02:17:37.276Z,960.39
2017-11-20T02:18:37.289Z,960.3
2017-11-20T02:19:37.303Z,960.31
2017-11-20T02:20:37.315Z,960.35
2017-11-20T02:21:37.330Z,960.37
2017-11-20T02:22:37.345Z,960.38
2017-11-20T02:23:37.364Z,960.37
2017-11-20T02:24:37.370Z,960.51
2017-11-20T02:25:37.382Z,960.32
2017-11-20T02:26:37.397Z,960.32
2017-11-20T02:27:37.414Z,960.36
2017-11-20T02:28:37.430Z,960.46
2017-11-20T02:29:37.443Z,960.41
2017-11-20T02:30:37.452Z,960.43
2017-11-20T02:31:37.466Z,960.43
2017-11-20T02:32:37.477Z,960.36
2017-11-20T02:33:37.491Z,960.44
2017-11-20T02:34:37.506Z,960.44
2017-11-20T02:35:37.518Z,960.43
2017-11-20T02:36:37.531Z,960.46
2017-11-20T02:37:37.549Z,960.48
2017-11-20T02:38:37.558Z,960.44
2017-11-20T02:39:37.580Z,960.46
2017-11-20T02:40:37.587Z,960.49
2017-11-20T02:41:37.649Z,960.41
2017-11-20T02:42:37.615Z,960.5
2017-11-20T02:43:37.627Z,960.47
2017-11-20T02:44:37.640Z,960.38
2017-11-20T02:45:37.656Z,960.44
2017-11-20T02:46:37.667Z,960.41
2017-11-20T02:47:37.681Z,960.39
2017-11-20T02:48:37.694Z,960.43
2017-11-20T02:49:37.711Z,960.44
2017-11-20T02:50:37.727Z,960.4
2017-11-20T02:51:37.736Z,960.42
2017-11-20T02:52:37.750Z,960.4
2017-11-20T02:53:37.763Z,960.4
2017-11-20T02:54:37.781Z,960.39
2017-11-20T02:55:37.789Z,960.43
2017-11-20T02:56:37.853Z,960.42
2017-11-20T02:57:37.815Z,960.44
2017-11-20T02:58:37.830Z,960.42
2017-11-20T02:59:37.853Z,960.38
2017-11-20T03:00:37.861Z,960.51
2017-11-20T03:01:37.879Z,960.4
2017-11-20T03:02:37.888Z,960.42
2017-11-20T03:03:37.896Z,960.35
2017-11-20T03:04:37.917Z,960.53
2017-11-20T03:05:37.925Z,960.5
2017-11-20T03:06:37.938Z,960.43
2017-11-20T03:07:37.953Z,960.47
2017-11-20T03:08:37.965Z,960.46
2017-11-20T03:09:37.978Z,960.46
2017-11-20T03:10:37.991Z,960.49
2017-11-20T03:11:38.006Z,960.48
2017-11-20T03:12:38.020Z,960.52
2017-11-20T03:13:38.032Z,960.49
2017-11-20T03:14:38.047Z,960.59
2017-11-20T03:15:38.059Z,960.52
2017-11-20T03:16:38.073Z,960.57
2017-11-20T03:17:38.087Z,960.55
2017-11-20T03:18:38.101Z,960.6
2017-11-20T03:19:38.115Z,960.64
2017-11-20T03:20:38.129Z,960.58
2017-11-20T03:21:38.143Z,960.69
2017-11-20T03:22:38.156Z,960.6
2017-11-20T03:23:38.168Z,960.59
2017-11-20T03:24:38.186Z,960.6
2017-11-20T03:25:38.195Z,960.65
2017-11-20T03:26:38.213Z,960.59
2017-11-20T03:27:38.223Z,960.62
2017-11-20T03:28:38.238Z,960.57
2017-11-20T03:29:38.249Z,960.57
2017-11-20T03:30:38.315Z,960.59
2017-11-20T03:31:38.277Z,960.58
2017-11-20T03:32:38.290Z,960.61
2017-11-20T03:33:38.310Z,960.58
2017-11-20T03:34:38.315Z,960.56
2017-11-20T03:35:38.330Z,960.57
2017-11-20T03:36:38.343Z,960.55
2017-11-20T03:37:38.357Z,960.61
2017-11-20T03:38:38.370Z,960.57
2017-11-20T03:39:38.383Z,960.56
2017-11-20T03:40:38.402Z,960.62
2017-11-20T03:41:38.412Z,960.64
2017-11-20T03:42:38.424Z,960.64
2017-11-20T03:43:38.439Z,960.61
2017-11-20T03:44:38.452Z,960.63
2017-11-20T03:45:38.514Z,960.67
2017-11-20T03:46:38.479Z,960.68
2017-11-20T03:47:38.503Z,960.63
2017-11-20T03:48:38.506Z,960.62
2017-11-20T03:49:38.518Z,960.6
2017-11-20T03:50:38.533Z,960.65
2017-11-20T03:51:38.546Z,960.62
2017-11-20T03:52:38.561Z,960.72
2017-11-20T03:53:38.573Z,960.58
2017-11-20T03:54:38.587Z,960.61
2017-11-20T03:55:38.618Z,960.64
2017-11-20T03:56:38.614Z,960.61
2017-11-20T03:57:38.628Z,960.64
2017-11-20T03:58:38.642Z,960.66
2017-11-20T03:59:38.653Z,960.55
2017-11-20T04:00:38.721Z,960.66
2017-11-20T04:01:38.682Z,960.69
2017-11-20T04:02:38.695Z,960.64
2017-11-20T04:03:38.707Z,960.64
2017-11-20T04:04:38.725Z,960.66
2017-11-20T04:05:38.736Z,960.7
2017-11-20T04:06:38.749Z,960.66
2017-11-20T04:07:38.769Z,960.73
2017-11-20T04:08:38.775Z,960.66
2017-11-20T04:09:38.796Z,960.67
2017-11-20T04:10:38.802Z,960.64
2017-11-20T04:11:38.822Z,960.72
2017-11-20T04:12:38.830Z,960.72
2017-11-20T04:13:38.843Z,960.76
2017-11-20T04:14:38.857Z,960.73
2017-11-20T04:15:38.869Z,960.76
2017-11-20T04:16:38.886Z,960.77
2017-11-20T04:17:38.898Z,960.82
2017-11-20T04:18:38.911Z,960.79
2017-11-20T04:19:38.976Z,960.81
2017-11-20T04:20:38.940Z,960.86
2017-11-20T04:21:38.952Z,960.87
2017-11-20T04:22:38.966Z,960.9
2017-11-20T04:23:38.981Z,960.88
2017-11-20T04:24:38.993Z,960.89
2017-11-20T04:25:39.007Z,960.86
2017-11-20T04:26:39.027Z,960.83
2017-11-20T04:27:39.035Z,960.89
2017-11-20T04:28:39.046Z,960.85
2017-11-20T04:29:39.060Z,960.88
2017-11-20T04:30:39.075Z,960.87
2017-11-20T04:31:39.086Z,960.89
2017-11-20T04:32:39.100Z,960.84
2017-11-20T04:33:39.114Z,960.8
2017-11-20T04:34:39.129Z,960.81
2017-11-20T04:35:39.143Z,960.79
2017-11-20T04:36:39.154Z,960.71
2017-11-20T04:37:39.170Z,960.77
2017-11-20T04:38:39.241Z,960.8
2017-11-20T04:39:39.196Z,960.7
2017-11-20T04:40:39.216Z,960.72
2017-11-20T04:41:39.224Z,960.77
2017-11-20T04:42:39.237Z,960.86
2017-11-20T04:43:39.251Z,960.72
2017-11-20T04:44:39.265Z,960.81
2017-11-20T04:45:39.278Z,960.74
2017-11-20T04:46:39.290Z,960.77
2017-11-20T04:47:39.304Z,960.77
2017-11-20T04:48:39.318Z,960.79
2017-11-20T04:49:39.333Z,960.76
2017-11-20T04:50:39.343Z,960.78
2017-11-20T04:51:39.360Z,960.84
2017-11-20T04:52:39.375Z,960.82
2017-11-20T04:53:39.435Z,960.74
2017-11-20T04:54:39.399Z,960.81
2017-11-20T04:55:39.414Z,960.8
2017-11-20T04:56:39.426Z,960.79
2017-11-20T04:57:39.440Z,960.81
2017-11-20T04:58:39.455Z,960.88
2017-11-20T04:59:39.470Z,960.82
2017-11-20T05:00:39.480Z,960.81
2017-11-20T05:01:39.496Z,960.81
2017-11-20T05:02:39.507Z,960.81
2017-11-20T05:03:39.520Z,960.8
2017-11-20T05:04:39.535Z,960.77
2017-11-20T05:05:39.548Z,960.82
2017-11-20T05:06:39.563Z,960.82
2017-11-20T05:07:39.575Z,960.83
2017-11-20T05:08:39.790Z,960.82
2017-11-20T05:09:39.601Z,960.82
2017-11-20T05:10:39.615Z,960.84
2017-11-20T05:11:39.629Z,960.85
2017-11-20T05:12:39.642Z,960.83
2017-11-20T05:13:39.656Z,960.78
2017-11-20T05:14:39.669Z,960.82
2017-11-20T05:15:39.683Z,960.78
2017-11-20T05:16:39.704Z,960.9
2017-11-20T05:17:39.712Z,960.82
2017-11-20T05:18:39.826Z,960.87
2017-11-20T05:19:39.738Z,960.91
2017-11-20T05:20:39.750Z,960.83
2017-11-20T05:21:39.765Z,960.86
2017-11-20T05:22:39.780Z,960.88
2017-11-20T05:23:39.841Z,960.84
2017-11-20T05:24:39.806Z,960.89
2017-11-20T05:25:39.818Z,960.87
2017-11-20T05:26:39.832Z,960.79
2017-11-20T05:27:39.846Z,960.87
2017-11-20T05:28:39.860Z,960.9
2017-11-20T05:29:39.874Z,960.86
2017-11-20T05:30:39.887Z,960.88
2017-11-20T05:31:39.900Z,960.88
2017-11-20T05:32:39.914Z,960.9
2017-11-20T05:33:40.028Z,960.88
2017-11-20T05:34:39.941Z,960.87
2017-11-20T05:35:39.963Z,960.89
2017-11-20T05:36:39.968Z,960.86
2017-11-20T05:37:39.980Z,960.87
2017-11-20T05:38:40.046Z,960.84
2017-11-20T05:39:40.009Z,960.81
2017-11-20T05:40:40.023Z,960.83
2017-11-20T05:41:40.034Z,960.84
2017-11-20T05:42:40.050Z,960.88
2017-11-20T05:43:40.070Z,960.84
2017-11-20T05:44:40.077Z,960.81
2017-11-20T05:45:40.088Z,960.89
2017-11-20T05:46:40.103Z,960.81
2017-11-20T05:47:40.116Z,960.81
2017-11-20T05:48:40.128Z,960.85
2017-11-20T05:49:40.142Z,960.81
2017-11-20T05:50:40.158Z,960.81
2017-11-20T05:51:40.170Z,960.82
2017-11-20T05:52:40.181Z,960.88
2017-11-20T05:53:40.245Z,960.85
2017-11-20T05:54:40.216Z,960.86
2017-11-20T05:55:40.223Z,960.87
2017-11-20T05:56:40.235Z,960.94
2017-11-20T05:57:40.248Z,960.95
2017-11-20T05:58:40.260Z,960.94
2017-11-20T05:59:40.273Z,960.95
2017-11-20T06:00:40.288Z,960.94
2017-11-20T06:01:40.300Z,960.97
2017-11-20T06:02:40.317Z,961.03
2017-11-20T06:03:40.326Z,961.02
2017-11-20T06:04:40.345Z,961.07
2017-11-20T06:05:40.354Z,961.05
2017-11-20T06:06:40.365Z,961.02
2017-11-20T06:07:40.379Z,961.05
2017-11-20T06:08:40.449Z,961.05
2017-11-20T06:09:40.405Z,961.02
2017-11-20T06:10:40.420Z,960.98
2017-11-20T06:11:40.431Z,960.96
2017-11-20T06:12:40.447Z,960.94
2017-11-20T06:13:40.462Z,960.98
2017-11-20T06:14:40.472Z,960.99
2017-11-20T06:15:40.491Z,960.94
2017-11-20T06:16:40.498Z,960.93
2017-11-20T06:17:40.512Z,960.98
2017-11-20T06:18:40.527Z,961.01
2017-11-20T06:19:40.537Z,961.03
2017-11-20T06:20:40.552Z,961.03
2017-11-20T06:21:40.567Z,961.01
2017-11-20T06:22:40.577Z,961.02
2017-11-20T06:23:40.648Z,961.02
2017-11-20T06:24:40.605Z,961.03
2017-11-20T06:25:40.616Z,961.02
2017-11-20T06:26:40.630Z,961.06
2017-11-20T06:27:40.645Z,961.07
2017-11-20T06:28:40.658Z,961.1
2017-11-20T06:29:40.671Z,961.1
2017-11-20T06:30:40.685Z,961.1
2017-11-20T06:31:40.699Z,961.13
2017-11-20T06:32:40.710Z,961.13
2017-11-20T06:33:40.724Z,961.09
2017-11-20T06:34:40.738Z,961.07
2017-11-20T06:35:40.752Z,961.1
2017-11-20T06:36:40.763Z,961.07
2017-11-20T06:37:40.777Z,961.05
2017-11-20T06:38:40.793Z,961.05
2017-11-20T06:39:40.853Z,961.05
2017-11-20T06:40:40.832Z,961.03
2017-11-20T06:41:40.831Z,961
2017-11-20T06:42:40.844Z,961
2017-11-20T06:43:40.856Z,960.99
2017-11-20T06:44:40.870Z,961.03
2017-11-20T06:45:40.884Z,960.98
2017-11-20T06:46:40.898Z,960.95
2017-11-20T06:47:40.919Z,960.93
2017-11-20T06:48:40.925Z,960.97
2017-11-20T06:49:40.938Z,961.08
2017-11-20T06:50:40.951Z,960.98
2017-11-20T06:51:40.972Z,960.89
2017-11-20T06:52:40.977Z,960.93
2017-11-20T06:53:40.991Z,960.97
2017-11-20T06:54:41.053Z,960.97
2017-11-20T06:55:41.016Z,961
2017-11-20T06:56:41.032Z,960.99
2017-11-20T06:57:41.045Z,960.99
2017-11-20T06:58:41.056Z,961.02
2017-11-20T06:59:41.074Z,961
2017-11-20T07:00:41.082Z,961.01
2017-11-20T07:01:41.096Z,961.05
2017-11-20T07:02:41.110Z,961.1
2017-11-20T07:03:41.124Z,961.08
2017-11-20T07:04:41.136Z,961.03
2017-11-20T07:05:41.150Z,961.11
2017-11-20T07:06:41.163Z,961.1
2017-11-20T07:07:41.177Z,961.08
2017-11-20T07:08:41.192Z,961.14
2017-11-20T07:09:41.203Z,961.16
2017-11-20T07:10:41.216Z,961.16
2017-11-20T07:11:41.280Z,961.23
2017-11-20T07:12:41.244Z,961.18
2017-11-20T07:13:41.256Z,961.2
2017-11-20T07:14:41.270Z,961.16
2017-11-20T07:15:41.285Z,961.18
2017-11-20T07:16:41.317Z,961.22
2017-11-20T07:17:41.311Z,961.16
2017-11-20T07:18:41.325Z,961.19
2017-11-20T07:19:41.338Z,961.25
2017-11-20T07:20:41.352Z,961.25
2017-11-20T07:21:41.470Z,961.28
2017-11-20T07:22:41.380Z,961.25
2017-11-20T07:23:41.395Z,961.24
2017-11-20T07:24:41.404Z,961.26
2017-11-20T07:25:41.418Z,961.23
2017-11-20T07:26:41.482Z,961.23
2017-11-20T07:27:41.446Z,961.28
2017-11-20T07:28:41.459Z,961.23
2017-11-20T07:29:41.479Z,961.22
2017-11-20T07:30:41.487Z,961.23
2017-11-20T07:31:41.500Z,961.27
2017-11-20T07:32:41.515Z,961.31
2017-11-20T07:33:41.529Z,961.29
2017-11-20T07:34:41.548Z,961.31
2017-11-20T07:35:41.555Z,961.24
2017-11-20T07:36:41.568Z,961.24
2017-11-20T07:37:41.581Z,961.32
2017-11-20T07:38:41.596Z,961.41
2017-11-20T07:39:41.609Z,961.34
2017-11-20T07:40:41.622Z,961.38
2017-11-20T07:41:41.637Z,961.42
2017-11-20T07:42:41.649Z,961.51
2017-11-20T07:43:41.662Z,961.45
2017-11-20T07:44:41.677Z,961.36
2017-11-20T07:45:41.690Z,961.43
2017-11-20T07:46:41.702Z,961.4
2017-11-20T07:47:41.717Z,961.37
2017-11-20T07:48:41.729Z,961.34
2017-11-20T07:49:41.743Z,961.39
2017-11-20T07:50:41.759Z,961.39
2017-11-20T07:51:41.773Z,961.44
2017-11-20T07:52:41.805Z,961.44
2017-11-20T07:53:41.796Z,961.45
2017-11-20T07:54:41.812Z,961.45
2017-11-20T07:55:41.826Z,961.41
2017-11-20T07:56:41.838Z,961.49
2017-11-20T07:57:41.852Z,961.43
2017-11-20T07:58:41.866Z,961.43
2017-11-20T07:59:41.884Z,961.45
2017-11-20T08:00:41.893Z,961.44
2017-11-20T08:01:41.957Z,961.48
2017-11-20T08:02:41.920Z,961.44
2017-11-20T08:03:41.936Z,961.43
2017-11-20T08:04:41.949Z,961.5
2017-11-20T08:05:41.964Z,961.42
2017-11-20T08:06:41.978Z,961.56
2017-11-20T08:07:41.990Z,961.46
2017-11-20T08:08:42.005Z,961.42
2017-11-20T08:09:42.023Z,961.45
2017-11-20T08:10:42.033Z,961.42
2017-11-20T08:11:42.052Z,961.43
2017-11-20T08:12:42.061Z,961.46
2017-11-20T08:13:42.075Z,961.48
2017-11-20T08:14:42.088Z,961.5
2017-11-20T08:15:42.102Z,961.44
2017-11-20T08:16:42.117Z,961.46
2017-11-20T08:17:42.132Z,961.47
2017-11-20T08:18:42.151Z,961.46
2017-11-20T08:19:42.308Z,961.49
2017-11-20T08:20:42.176Z,961.45
2017-11-20T08:21:42.188Z,961.51
2017-11-20T08:22:42.201Z,961.48
2017-11-20T08:23:42.216Z,961.5
2017-11-20T08:24:42.281Z,961.52
2017-11-20T08:25:42.247Z,961.57
2017-11-20T08:26:42.258Z,961.58
2017-11-20T08:27:42.277Z,961.6
2017-11-20T08:28:42.290Z,961.5
2017-11-20T08:29:42.301Z,961.49
2017-11-20T08:30:42.315Z,961.57
2017-11-20T08:31:42.329Z,961.6
2017-11-20T08:32:42.344Z,961.58
2017-11-20T08:33:42.359Z,961.57
2017-11-20T08:34:42.374Z,961.57
2017-11-20T08:35:42.388Z,961.57
2017-11-20T08:36:42.450Z,961.52
2017-11-20T08:37:42.416Z,961.61
2017-11-20T08:38:42.430Z,961.69
2017-11-20T08:39:42.445Z,961.64
2017-11-20T08:40:42.460Z,961.62
2017-11-20T08:41:42.474Z,961.62
2017-11-20T08:42:42.492Z,961.62
2017-11-20T08:43:42.504Z,961.6
2017-11-20T08:44:42.517Z,961.59
2017-11-20T08:45:42.531Z,961.68
2017-11-20T08:46:42.546Z,961.54
2017-11-20T08:47:42.561Z,961.59
2017-11-20T08:48:42.575Z,961.61
2017-11-20T08:49:42.591Z,961.56
2017-11-20T08:50:42.605Z,961.58
2017-11-20T08:51:42.620Z,961.6
2017-11-20T08:52:42.636Z,961.57
2017-11-20T08:53:42.649Z,961.56
2017-11-20T08:54:42.663Z,961.59
2017-11-20T08:55:42.679Z,961.58
2017-11-20T08:56:42.692Z,961.63
2017-11-20T08:57:42.708Z,961.62
2017-11-20T08:58:42.721Z,961.67
2017-11-20T08:59:42.735Z,961.8
2017-11-20T09:00:42.750Z,961.64
2017-11-20T09:01:42.765Z,961.67
2017-11-20T09:02:42.779Z,961.65
2017-11-20T09:03:42.792Z,961.62
2017-11-20T09:04:42.813Z,961.69
2017-11-20T09:05:42.823Z,961.65
2017-11-20T09:06:42.836Z,961.67
2017-11-20T09:07:42.853Z,961.72
2017-11-20T09:08:42.917Z,961.72
2017-11-20T09:09:42.878Z,961.74
2017-11-20T09:10:42.894Z,961.69
2017-11-20T09:11:42.909Z,961.74
2017-11-20T09:12:42.937Z,961.7
2017-11-20T09:13:42.937Z,961.68
2017-11-20T09:14:42.953Z,961.69
2017-11-20T09:15:42.966Z,961.68
2017-11-20T09:16:42.981Z,961.66
2017-11-20T09:17:42.999Z,961.72
2017-11-20T09:18:43.010Z,961.73
2017-11-20T09:19:43.024Z,961.74
2017-11-20T09:20:43.039Z,961.65
2017-11-20T09:21:43.052Z,961.69
2017-11-20T09:22:43.067Z,961.72
2017-11-20T09:23:43.132Z,961.71
2017-11-20T09:24:43.096Z,961.78
2017-11-20T09:25:43.109Z,961.69
2017-11-20T09:26:43.127Z,961.71
2017-11-20T09:27:43.140Z,961.71
2017-11-20T09:28:43.164Z,961.74
2017-11-20T09:29:43.169Z,961.73
2017-11-20T09:30:43.283Z,961.68
2017-11-20T09:31:43.203Z,961.69
2017-11-20T09:32:43.213Z,961.71
2017-11-20T09:33:43.227Z,961.67
2017-11-20T09:34:43.242Z,961.71
2017-11-20T09:35:43.254Z,961.68
2017-11-20T09:36:43.268Z,961.61
2017-11-20T09:37:43.286Z,961.66
2017-11-20T09:38:43.300Z,961.69
2017-11-20T09:39:43.314Z,961.67
2017-11-20T09:40:43.379Z,961.68
2017-11-20T09:41:43.346Z,961.73
2017-11-20T09:42:43.359Z,961.65
2017-11-20T09:43:43.373Z,961.76
2017-11-20T09:44:43.389Z,961.7
2017-11-20T09:45:43.404Z,961.75
2017-11-20T09:46:43.420Z,961.74
2017-11-20T09:47:43.435Z,961.74
2017-11-20T09:48:43.449Z,961.75
2017-11-20T09:49:43.462Z,961.77
2017-11-20T09:50:43.477Z,961.7
2017-11-20T09:51:43.498Z,961.79
2017-11-20T09:52:43.509Z,961.75
2017-11-20T09:53:43.522Z,961.74
2017-11-20T09:54:43.537Z,961.84
2017-11-20T09:55:43.562Z,961.81
2017-11-20T09:56:43.567Z,961.75
2017-11-20T09:57:43.587Z,961.77
2017-11-20T09:58:43.648Z,961.7
2017-11-20T09:59:43.613Z,961.79
2017-11-20T10:00:43.629Z,961.75
2017-11-20T10:01:43.643Z,961.72
2017-11-20T10:02:43.660Z,961.74
2017-11-20T10:03:43.674Z,961.75
2017-11-20T10:04:43.688Z,961.78
2017-11-20T10:05:43.706Z,961.73
2017-11-20T10:06:43.722Z,961.73
2017-11-20T10:07:43.737Z,961.73
2017-11-20T10:08:43.750Z,961.69
2017-11-20T10:09:43.767Z,961.76
2017-11-20T10:10:43.781Z,961.77
2017-11-20T10:11:43.805Z,961.68
2017-11-20T10:12:43.812Z,961.7
2017-11-20T10:13:43.876Z,961.65
2017-11-20T10:14:43.843Z,961.56
2017-11-20T10:15:43.858Z,961.59
2017-11-20T10:16:43.871Z,961.63
2017-11-20T10:17:43.899Z,961.65
2017-11-20T10:18:43.905Z,961.6
2017-11-20T10:19:43.916Z,961.62
2017-11-20T10:20:43.935Z,961.53
2017-11-20T10:21:43.948Z,961.58
2017-11-20T10:22:43.963Z,961.55
2017-11-20T10:23:43.976Z,961.65
2017-11-20T10:24:43.997Z,961.54
2017-11-20T10:25:44.008Z,961.56
2017-11-20T10:26:44.024Z,961.55
2017-11-20T10:27:44.038Z,961.51
2017-11-20T10:28:44.051Z,961.48
2017-11-20T10:29:44.069Z,961.49
2017-11-20T10:30:44.082Z,961.51
2017-11-20T10:31:44.147Z,961.47
2017-11-20T10:32:44.114Z,961.39
2017-11-20T10:33:44.128Z,961.37
2017-11-20T10:34:44.145Z,961.36
2017-11-20T10:35:44.157Z,961.42
2017-11-20T10:36:44.222Z,961.4
2017-11-20T10:37:44.199Z,961.33
2017-11-20T10:38:44.201Z,961.33
2017-11-20T10:39:44.217Z,961.31
2017-11-20T10:40:44.232Z,961.3
2017-11-20T10:41:44.245Z,961.3
2017-11-20T10:42:44.261Z,961.32
2017-11-20T10:43:44.278Z,961.33
2017-11-20T10:44:44.289Z,961.38
2017-11-20T10:45:44.304Z,961.25
2017-11-20T10:46:44.370Z,961.3
2017-11-20T10:47:44.334Z,961.35
2017-11-20T10:48:44.349Z,961.27
2017-11-20T10:49:44.363Z,961.26
2017-11-20T10:50:44.377Z,961.24
2017-11-20T10:51:44.392Z,961.19
2017-11-20T10:52:44.409Z,961.14
2017-11-20T10:53:44.421Z,961.14
2017-11-20T10:54:44.435Z,961.17
2017-11-20T10:55:44.449Z,961.13
2017-11-20T10:56:44.465Z,961.16
2017-11-20T10:57:44.479Z,961.13
2017-11-20T10:58:44.494Z,961.07
2017-11-20T10:59:44.512Z,961.06
2017-11-20T11:00:44.524Z,961.09
2017-11-20T11:01:44.540Z,961.06
2017-11-20T11:02:44.554Z,961.08
2017-11-20T11:03:44.569Z,961.04
2017-11-20T11:04:44.583Z,961.02
2017-11-20T11:05:44.600Z,961.03
2017-11-20T11:06:44.613Z,960.97
2017-11-20T11:07:44.628Z,960.95
2017-11-20T11:08:44.645Z,961.03
2017-11-20T11:09:44.663Z,960.92
2017-11-20T11:10:44.673Z,961
2017-11-20T11:11:44.689Z,960.91
2017-11-20T11:12:44.704Z,960.96
2017-11-20T11:13:44.719Z,960.89
2017-11-20T11:14:44.733Z,960.92
2017-11-20T11:15:44.751Z,960.88
2017-11-20T11:16:44.767Z,960.9
2017-11-20T11:17:44.778Z,960.83
2017-11-20T11:18:44.843Z,960.81
2017-11-20T11:19:44.809Z,960.85
2017-11-20T11:20:44.824Z,960.76
2017-11-20T11:21:44.837Z,960.77
2017-11-20T11:22:44.853Z,960.8
2017-11-20T11:23:44.869Z,960.81
2017-11-20T11:24:44.884Z,960.77
2017-11-20T11:25:44.896Z,960.78
2017-11-20T11:26:44.912Z,960.73
2017-11-20T11:27:44.928Z,960.73
2017-11-20T11:28:44.941Z,960.74
2017-11-20T11:29:44.958Z,960.76
2017-11-20T11:30:44.972Z,960.81
2017-11-20T11:31:44.988Z,960.74
2017-11-20T11:32:45.002Z,960.71
2017-11-20T11:33:45.018Z,960.68
2017-11-20T11:34:45.547Z,960.69
2017-11-20T11:35:45.048Z,960.7
2017-11-20T11:36:45.063Z,960.7
2017-11-20T11:37:45.128Z,960.68
2017-11-20T11:38:45.091Z,960.67
2017-11-20T11:39:45.208Z,960.7
2017-11-20T11:40:45.121Z,960.72
2017-11-20T11:41:45.138Z,960.65
2017-11-20T11:42:45.178Z,960.65
2017-11-20T11:43:45.167Z,960.61
2017-11-20T11:44:45.184Z,960.56
2017-11-20T11:45:45.197Z,960.59
2017-11-20T11:46:45.213Z,960.56
2017-11-20T11:47:45.234Z,960.61
2017-11-20T11:48:45.243Z,960.57
2017-11-20T11:49:45.259Z,960.6
2017-11-20T11:50:45.274Z,960.58
2017-11-20T11:51:45.288Z,960.61
2017-11-20T11:52:45.303Z,960.54
2017-11-20T11:53:45.321Z,960.54
2017-11-20T11:54:45.385Z,960.63
2017-11-20T11:55:45.350Z,960.6
2017-11-20T11:56:45.364Z,960.63
2017-11-20T11:57:45.380Z,960.66
2017-11-20T11:58:45.395Z,960.68
2017-11-20T11:59:45.414Z,960.65
2017-11-20T12:00:45.426Z,960.69
2017-11-20T12:01:45.440Z,960.73
2017-11-20T12:02:45.456Z,960.69
2017-11-20T12:03:45.471Z,960.63
2017-11-20T12:04:45.494Z,960.63
2017-11-20T12:05:45.500Z,960.65
2017-11-20T12:06:45.523Z,960.57
2017-11-20T12:07:45.580Z,960.57
2017-11-20T12:08:45.546Z,960.54
2017-11-20T12:09:45.558Z,960.48
2017-11-20T12:10:45.574Z,960.32
2017-11-20T12:11:45.590Z,960.39
2017-11-20T12:12:45.605Z,960.47
2017-11-20T12:13:45.619Z,960.53
2017-11-20T12:14:45.641Z,960.64
2017-11-20T12:15:45.650Z,960.63
2017-11-20T12:16:45.665Z,960.58
2017-11-20T12:17:45.679Z,960.57
2017-11-20T12:18:45.695Z,960.56
2017-11-20T12:19:45.708Z,960.55
2017-11-20T12:20:45.724Z,960.54
2017-11-20T12:21:45.737Z,960.51
2017-11-20T12:22:45.753Z,960.42
2017-11-20T12:23:45.766Z,960.51
2017-11-20T12:24:45.783Z,960.57
2017-11-20T12:25:45.797Z,960.46
2017-11-20T12:26:45.812Z,960.48
2017-11-20T12:27:45.900Z,960.44
2017-11-20T12:28:45.860Z,960.44
2017-11-20T12:29:45.857Z,960.44
2017-11-20T12:30:45.870Z,960.39
2017-11-20T12:31:45.887Z,960.41